sensor_id;sensor_type;location;lat;lon;timestamp;temperature;humidity
43183;DHT22;28802;38.578;-0.066;2023-02-26T00:01:20;11.30;99.90
43183;DHT22;28802;38.578;-0.066;2023-02-26T00:03:54;11.20;99.90
43183;DHT22;28802;38.578;-0.066;2023-02-26T00:06:21;11.00;99.90
43183;DHT22;28802;38.578;-0.066;2023-02-26T00:08:47;11.20;99.90
43183;DHT22;28802;38.578;-0.066;2023-02-26T00:11:13;11.20;99.90
43183;DHT22;28802;38.578;-0.066;2023-02-26T00:13:42;11.20;99.90
43183;DHT22;28802;38.578;-0.066;2023-02-26T00:16:24;11.10;99.90
43183;DHT22;28802;38.578;-0.066;2023-02-26T00:18:50;11.10;99.90
43183;DHT22;28802;38.578;-0.066;2023-02-26T00:21:18;11.10;99.90
43183;DHT22;28802;38.578;-0.066;2023-02-26T00:23:44;11.10;99.90
43183;DHT22;28802;38.578;-0.066;2023-02-26T00:26:10;11.10;99.90
43183;DHT22;28802;38.578;-0.066;2023-02-26T00:28:37;11.20;99.90
43183;DHT22;28802;38.578;-0.066;2023-02-26T00:31:03;11.10;99.90
43183;DHT22;28802;38.578;-0.066;2023-02-26T00:33:29;11.10;99.90
43183;DHT22;28802;38.578;-0.066;2023-02-26T00:36:02;11.00;99.90
43183;DHT22;28802;38.578;-0.066;2023-02-26T00:38:31;10.90;99.90
43183;DHT22;28802;38.578;-0.066;2023-02-26T00:40:59;10.90;99.90
43183;DHT22;28802;38.578;-0.066;2023-02-26T00:43:25;11.00;99.90
43183;DHT22;28802;38.578;-0.066;2023-02-26T00:51:12;10.80;99.90
43183;DHT22;28802;38.578;-0.066;2023-02-26T00:53:50;10.80;99.90
43183;DHT22;28802;38.578;-0.066;2023-02-26T00:56:22;10.90;99.90
43183;DHT22;28802;38.578;-0.066;2023-02-26T00:58:48;10.70;99.90
43183;DHT22;28802;38.578;-0.066;2023-02-26T01:01:14;10.80;99.90
43183;DHT22;28802;38.578;-0.066;2023-02-26T01:03:40;10.90;99.90
43183;DHT22;28802;38.578;-0.066;2023-02-26T01:06:12;10.90;99.90
43183;DHT22;28802;38.578;-0.066;2023-02-26T01:08:46;10.90;99.90
43183;DHT22;28802;38.578;-0.066;2023-02-26T01:11:16;10.90;99.90
43183;DHT22;28802;38.578;-0.066;2023-02-26T01:13:42;11.00;99.90
43183;DHT22;28802;38.578;-0.066;2023-02-26T01:16:11;11.00;99.90
43183;DHT22;28802;38.578;-0.066;2023-02-26T01:18:45;11.00;99.90
43183;DHT22;28802;38.578;-0.066;2023-02-26T01:21:22;10.80;99.90
43183;DHT22;28802;38.578;-0.066;2023-02-26T01:23:50;10.60;99.90
43183;DHT22;28802;38.578;-0.066;2023-02-26T01:26:27;10.50;99.90
43183;DHT22;28802;38.578;-0.066;2023-02-26T01:28:55;10.30;99.90
43183;DHT22;28802;38.578;-0.066;2023-02-26T01:31:51;10.10;99.90
43183;DHT22;28802;38.578;-0.066;2023-02-26T01:34:27;10.10;99.90
43183;DHT22;28802;38.578;-0.066;2023-02-26T01:39:42;9.90;99.90
43183;DHT22;28802;38.578;-0.066;2023-02-26T01:42:22;9.80;99.90
43183;DHT22;28802;38.578;-0.066;2023-02-26T01:45:10;9.70;99.90
43183;DHT22;28802;38.578;-0.066;2023-02-26T01:47:56;9.70;99.90
43183;DHT22;28802;38.578;-0.066;2023-02-26T01:50:24;9.70;99.90
43183;DHT22;28802;38.578;-0.066;2023-02-26T01:53:20;9.50;99.90
43183;DHT22;28802;38.578;-0.066;2023-02-26T01:56:09;9.40;99.90
43183;DHT22;28802;38.578;-0.066;2023-02-26T01:58:37;9.30;99.90
43183;DHT22;28802;38.578;-0.066;2023-02-26T02:01:04;9.30;99.90
43183;DHT22;28802;38.578;-0.066;2023-02-26T02:03:33;9.40;99.90
43183;DHT22;28802;38.578;-0.066;2023-02-26T02:06:23;9.40;99.90
43183;DHT22;28802;38.578;-0.066;2023-02-26T02:08:48;9.80;99.90
43183;DHT22;28802;38.578;-0.066;2023-02-26T02:11:14;9.80;99.90
43183;DHT22;28802;38.578;-0.066;2023-02-26T02:17:11;10.10;99.90
43183;DHT22;28802;38.578;-0.066;2023-02-26T02:27:51;9.70;99.90
43183;DHT22;28802;38.578;-0.066;2023-02-26T02:31:09;9.80;99.90
43183;DHT22;28802;38.578;-0.066;2023-02-26T02:33:18;9.80;99.90
43183;DHT22;28802;38.578;-0.066;2023-02-26T02:35:56;9.80;99.90
43183;DHT22;28802;38.578;-0.066;2023-02-26T02:38:38;9.80;99.90
43183;DHT22;28802;38.578;-0.066;2023-02-26T02:41:16;9.90;99.90
43183;DHT22;28802;38.578;-0.066;2023-02-26T02:43:44;10.10;99.90
43183;DHT22;28802;38.578;-0.066;2023-02-26T02:46:15;10.20;99.90
43183;DHT22;28802;38.578;-0.066;2023-02-26T02:54:09;10.20;99.90
43183;DHT22;28802;38.578;-0.066;2023-02-26T02:56:57;10.50;99.90
43183;DHT22;28802;38.578;-0.066;2023-02-26T02:59:50;10.60;99.90
43183;DHT22;28802;38.578;-0.066;2023-02-26T03:05:14;10.70;99.90
43183;DHT22;28802;38.578;-0.066;2023-02-26T03:07:52;10.80;99.90
43183;DHT22;28802;38.578;-0.066;2023-02-26T03:10:20;10.80;99.90
43183;DHT22;28802;38.578;-0.066;2023-02-26T03:12:46;10.70;99.90
43183;DHT22;28802;38.578;-0.066;2023-02-26T03:15:13;10.70;99.90
43183;DHT22;28802;38.578;-0.066;2023-02-26T03:17:51;10.90;99.90
43183;DHT22;28802;38.578;-0.066;2023-02-26T03:20:30;10.90;99.90
43183;DHT22;28802;38.578;-0.066;2023-02-26T03:23:18;11.00;99.90
43183;DHT22;28802;38.578;-0.066;2023-02-26T03:25:58;10.90;99.90
43183;DHT22;28802;38.578;-0.066;2023-02-26T03:37:00;11.00;99.90
43183;DHT22;28802;38.578;-0.066;2023-02-26T03:39:37;10.80;99.90
43183;DHT22;28802;38.578;-0.066;2023-02-26T03:45:18;10.80;99.90
43183;DHT22;28802;38.578;-0.066;2023-02-26T03:47:47;10.70;99.90
43183;DHT22;28802;38.578;-0.066;2023-02-26T03:50:30;10.70;99.90
43183;DHT22;28802;38.578;-0.066;2023-02-26T03:53:23;10.70;99.90
43183;DHT22;28802;38.578;-0.066;2023-02-26T03:56:16;10.70;99.90
43183;DHT22;28802;38.578;-0.066;2023-02-26T04:02:43;10.70;99.90
43183;DHT22;28802;38.578;-0.066;2023-02-26T04:05:21;10.60;99.90
43183;DHT22;28802;38.578;-0.066;2023-02-26T04:07:48;10.70;99.90
43183;DHT22;28802;38.578;-0.066;2023-02-26T04:10:18;10.70;99.90
43183;DHT22;28802;38.578;-0.066;2023-02-26T04:12:46;10.60;99.90
43183;DHT22;28802;38.578;-0.066;2023-02-26T04:15:13;10.60;99.90
43183;DHT22;28802;38.578;-0.066;2023-02-26T04:17:40;10.60;99.90
43183;DHT22;28802;38.578;-0.066;2023-02-26T04:20:07;10.50;99.90
43183;DHT22;28802;38.578;-0.066;2023-02-26T04:22:34;10.40;99.90
43183;DHT22;28802;38.578;-0.066;2023-02-26T04:25:01;10.30;99.90
43183;DHT22;28802;38.578;-0.066;2023-02-26T04:27:27;10.30;99.90
43183;DHT22;28802;38.578;-0.066;2023-02-26T04:29:53;10.20;99.90
43183;DHT22;28802;38.578;-0.066;2023-02-26T04:32:23;10.20;99.90
43183;DHT22;28802;38.578;-0.066;2023-02-26T04:34:54;10.30;99.90
43183;DHT22;28802;38.578;-0.066;2023-02-26T04:37:20;10.40;99.90
43183;DHT22;28802;38.578;-0.066;2023-02-26T04:39:47;10.50;99.90
43183;DHT22;28802;38.578;-0.066;2023-02-26T04:42:13;10.30;99.90
43183;DHT22;28802;38.578;-0.066;2023-02-26T04:44:39;10.20;99.90
43183;DHT22;28802;38.578;-0.066;2023-02-26T04:47:06;10.20;99.90
43183;DHT22;28802;38.578;-0.066;2023-02-26T04:49:33;10.30;99.90
43183;DHT22;28802;38.578;-0.066;2023-02-26T04:51:59;10.30;99.90
43183;DHT22;28802;38.578;-0.066;2023-02-26T04:54:32;10.20;99.90
43183;DHT22;28802;38.578;-0.066;2023-02-26T04:56:58;10.00;99.90
43183;DHT22;28802;38.578;-0.066;2023-02-26T05:01:58;10.10;99.90
43183;DHT22;28802;38.578;-0.066;2023-02-26T05:04:24;10.00;99.90
43183;DHT22;28802;38.578;-0.066;2023-02-26T05:06:54;9.90;99.90
43183;DHT22;28802;38.578;-0.066;2023-02-26T05:09:20;9.90;99.90
43183;DHT22;28802;38.578;-0.066;2023-02-26T05:11:46;9.90;99.90
43183;DHT22;28802;38.578;-0.066;2023-02-26T05:14:14;9.80;99.90
43183;DHT22;28802;38.578;-0.066;2023-02-26T05:16:40;9.70;99.90
43183;DHT22;28802;38.578;-0.066;2023-02-26T05:19:07;9.70;99.90
43183;DHT22;28802;38.578;-0.066;2023-02-26T05:21:32;9.70;99.90
43183;DHT22;28802;38.578;-0.066;2023-02-26T05:23:58;9.80;99.90
43183;DHT22;28802;38.578;-0.066;2023-02-26T05:26:24;9.80;99.90
43183;DHT22;28802;38.578;-0.066;2023-02-26T05:28:51;9.70;99.90
43183;DHT22;28802;38.578;-0.066;2023-02-26T05:31:18;9.70;99.90
43183;DHT22;28802;38.578;-0.066;2023-02-26T05:33:44;9.70;99.90
43183;DHT22;28802;38.578;-0.066;2023-02-26T05:36:10;9.70;99.90
43183;DHT22;28802;38.578;-0.066;2023-02-26T05:38:36;9.70;99.90
43183;DHT22;28802;38.578;-0.066;2023-02-26T05:41:02;9.60;99.90
43183;DHT22;28802;38.578;-0.066;2023-02-26T05:43:28;9.70;99.90
43183;DHT22;28802;38.578;-0.066;2023-02-26T05:45:54;9.60;99.90
43183;DHT22;28802;38.578;-0.066;2023-02-26T05:48:21;9.50;99.90
43183;DHT22;28802;38.578;-0.066;2023-02-26T05:50:51;9.40;99.90
43183;DHT22;28802;38.578;-0.066;2023-02-26T05:53:17;9.30;99.90
43183;DHT22;28802;38.578;-0.066;2023-02-26T05:55:43;9.20;99.90
43183;DHT22;28802;38.578;-0.066;2023-02-26T05:58:09;9.30;99.90
43183;DHT22;28802;38.578;-0.066;2023-02-26T06:00:35;9.50;99.90
43183;DHT22;28802;38.578;-0.066;2023-02-26T06:03:01;9.60;99.90
43183;DHT22;28802;38.578;-0.066;2023-02-26T06:05:26;9.70;99.90
43183;DHT22;28802;38.578;-0.066;2023-02-26T06:07:52;9.70;99.90
43183;DHT22;28802;38.578;-0.066;2023-02-26T06:10:18;9.70;99.90
43183;DHT22;28802;38.578;-0.066;2023-02-26T06:12:44;9.70;99.90
43183;DHT22;28802;38.578;-0.066;2023-02-26T06:15:11;9.70;99.90
43183;DHT22;28802;38.578;-0.066;2023-02-26T06:17:37;9.70;99.90
43183;DHT22;28802;38.578;-0.066;2023-02-26T06:20:04;9.60;99.90
43183;DHT22;28802;38.578;-0.066;2023-02-26T06:22:30;9.60;99.90
43183;DHT22;28802;38.578;-0.066;2023-02-26T06:24:56;9.60;99.90
43183;DHT22;28802;38.578;-0.066;2023-02-26T06:27:22;9.70;99.90
43183;DHT22;28802;38.578;-0.066;2023-02-26T06:29:48;9.60;99.90
43183;DHT22;28802;38.578;-0.066;2023-02-26T06:32:14;9.70;99.90
43183;DHT22;28802;38.578;-0.066;2023-02-26T06:34:40;9.60;99.90
43183;DHT22;28802;38.578;-0.066;2023-02-26T06:37:06;9.60;99.90
43183;DHT22;28802;38.578;-0.066;2023-02-26T06:39:32;9.70;99.90
43183;DHT22;28802;38.578;-0.066;2023-02-26T06:41:58;9.70;99.90
43183;DHT22;28802;38.578;-0.066;2023-02-26T06:44:24;9.80;99.90
43183;DHT22;28802;38.578;-0.066;2023-02-26T06:46:50;9.90;99.90
43183;DHT22;28802;38.578;-0.066;2023-02-26T06:49:16;9.60;99.90
43183;DHT22;28802;38.578;-0.066;2023-02-26T06:51:42;9.60;99.90
43183;DHT22;28802;38.578;-0.066;2023-02-26T06:54:08;9.70;99.90
43183;DHT22;28802;38.578;-0.066;2023-02-26T06:56:34;10.10;99.90
43183;DHT22;28802;38.578;-0.066;2023-02-26T06:59:00;10.70;99.90
43183;DHT22;28802;38.578;-0.066;2023-02-26T07:01:26;11.00;99.90
43183;DHT22;28802;38.578;-0.066;2023-02-26T07:03:52;11.20;99.90
43183;DHT22;28802;38.578;-0.066;2023-02-26T07:06:18;11.60;99.90
43183;DHT22;28802;38.578;-0.066;2023-02-26T07:08:44;12.30;99.90
43183;DHT22;28802;38.578;-0.066;2023-02-26T07:11:10;12.80;99.90
43183;DHT22;28802;38.578;-0.066;2023-02-26T07:13:37;13.30;99.90
43183;DHT22;28802;38.578;-0.066;2023-02-26T07:16:04;13.60;99.90
43183;DHT22;28802;38.578;-0.066;2023-02-26T07:18:35;13.50;99.90
43183;DHT22;28802;38.578;-0.066;2023-02-26T07:21:02;13.90;99.90
43183;DHT22;28802;38.578;-0.066;2023-02-26T07:23:27;14.10;99.90
43183;DHT22;28802;38.578;-0.066;2023-02-26T07:25:54;14.20;99.90
43183;DHT22;28802;38.578;-0.066;2023-02-26T07:28:22;14.30;99.90
43183;DHT22;28802;38.578;-0.066;2023-02-26T07:30:47;14.40;99.90
43183;DHT22;28802;38.578;-0.066;2023-02-26T07:33:14;15.10;99.90
43183;DHT22;28802;38.578;-0.066;2023-02-26T07:35:40;15.60;99.90
43183;DHT22;28802;38.578;-0.066;2023-02-26T07:38:06;16.30;99.90
43183;DHT22;28802;38.578;-0.066;2023-02-26T07:40:32;16.70;99.90
43183;DHT22;28802;38.578;-0.066;2023-02-26T07:42:58;16.80;99.90
43183;DHT22;28802;38.578;-0.066;2023-02-26T07:45:24;17.40;99.90
43183;DHT22;28802;38.578;-0.066;2023-02-26T07:47:51;17.70;99.90
43183;DHT22;28802;38.578;-0.066;2023-02-26T07:50:17;17.80;99.90
43183;DHT22;28802;38.578;-0.066;2023-02-26T07:52:43;17.10;99.90
43183;DHT22;28802;38.578;-0.066;2023-02-26T07:55:11;17.50;99.90
43183;DHT22;28802;38.578;-0.066;2023-02-26T07:57:37;17.80;99.90
43183;DHT22;28802;38.578;-0.066;2023-02-26T08:00:04;17.90;99.90
43183;DHT22;28802;38.578;-0.066;2023-02-26T08:02:38;18.10;99.50
43183;DHT22;28802;38.578;-0.066;2023-02-26T08:05:04;17.80;98.70
43183;DHT22;28802;38.578;-0.066;2023-02-26T08:07:30;17.90;99.90
43183;DHT22;28802;38.578;-0.066;2023-02-26T08:09:56;17.80;98.10
43183;DHT22;28802;38.578;-0.066;2023-02-26T08:12:22;18.00;97.80
43183;DHT22;28802;38.578;-0.066;2023-02-26T08:14:48;18.40;97.60
43183;DHT22;28802;38.578;-0.066;2023-02-26T08:17:14;18.30;97.20
43183;DHT22;28802;38.578;-0.066;2023-02-26T08:19:40;18.50;96.50
43183;DHT22;28802;38.578;-0.066;2023-02-26T08:22:06;18.70;94.30
43183;DHT22;28802;38.578;-0.066;2023-02-26T08:24:32;18.80;94.60
43183;DHT22;28802;38.578;-0.066;2023-02-26T08:26:58;18.60;94.70
43183;DHT22;28802;38.578;-0.066;2023-02-26T08:29:24;18.60;95.50
43183;DHT22;28802;38.578;-0.066;2023-02-26T08:31:50;19.50;95.00
43183;DHT22;28802;38.578;-0.066;2023-02-26T08:34:17;20.60;94.20
43183;DHT22;28802;38.578;-0.066;2023-02-26T08:36:43;20.70;93.30
43183;DHT22;28802;38.578;-0.066;2023-02-26T08:39:08;21.00;92.40
43183;DHT22;28802;38.578;-0.066;2023-02-26T08:41:34;20.90;91.80
43183;DHT22;28802;38.578;-0.066;2023-02-26T08:44:02;20.80;92.40
43183;DHT22;28802;38.578;-0.066;2023-02-26T08:46:28;21.30;91.70
43183;DHT22;28802;38.578;-0.066;2023-02-26T08:48:54;21.40;91.00
43183;DHT22;28802;38.578;-0.066;2023-02-26T08:51:21;22.10;90.30
43183;DHT22;28802;38.578;-0.066;2023-02-26T08:53:47;22.60;88.40
43183;DHT22;28802;38.578;-0.066;2023-02-26T08:56:15;22.70;85.50
43183;DHT22;28802;38.578;-0.066;2023-02-26T08:58:41;22.50;86.10
43183;DHT22;28802;38.578;-0.066;2023-02-26T09:01:07;23.10;82.30
43183;DHT22;28802;38.578;-0.066;2023-02-26T09:03:34;22.70;84.60
43183;DHT22;28802;38.578;-0.066;2023-02-26T09:06:00;22.80;82.60
43183;DHT22;28802;38.578;-0.066;2023-02-26T09:08:26;22.60;82.10
43183;DHT22;28802;38.578;-0.066;2023-02-26T09:10:52;22.40;83.90
43183;DHT22;28802;38.578;-0.066;2023-02-26T09:13:18;22.80;81.10
43183;DHT22;28802;38.578;-0.066;2023-02-26T09:15:44;21.50;81.70
43183;DHT22;28802;38.578;-0.066;2023-02-26T09:18:10;21.60;83.20
43183;DHT22;28802;38.578;-0.066;2023-02-26T09:20:43;21.90;81.40
43183;DHT22;28802;38.578;-0.066;2023-02-26T09:23:10;22.30;81.00
43183;DHT22;28802;38.578;-0.066;2023-02-26T09:25:37;22.40;80.00
43183;DHT22;28802;38.578;-0.066;2023-02-26T09:28:03;22.30;81.60
43183;DHT22;28802;38.578;-0.066;2023-02-26T09:30:29;21.60;78.00
43183;DHT22;28802;38.578;-0.066;2023-02-26T09:32:55;20.60;74.60
43183;DHT22;28802;38.578;-0.066;2023-02-26T09:35:21;20.70;77.80
43183;DHT22;28802;38.578;-0.066;2023-02-26T09:37:47;20.70;74.50
43183;DHT22;28802;38.578;-0.066;2023-02-26T09:40:48;20.60;74.10
43183;DHT22;28802;38.578;-0.066;2023-02-26T09:44:04;20.30;73.50
43183;DHT22;28802;38.578;-0.066;2023-02-26T09:49:43;19.20;75.20
43183;DHT22;28802;38.578;-0.066;2023-02-26T09:52:31;18.80;74.50
43183;DHT22;28802;38.578;-0.066;2023-02-26T09:55:08;19.10;76.20
43183;DHT22;28802;38.578;-0.066;2023-02-26T09:57:41;19.00;74.30
43183;DHT22;28802;38.578;-0.066;2023-02-26T10:06:15;20.20;72.90
43183;DHT22;28802;38.578;-0.066;2023-02-26T10:12:14;19.70;72.30
43183;DHT22;28802;38.578;-0.066;2023-02-26T10:20:20;20.40;69.80
43183;DHT22;28802;38.578;-0.066;2023-02-26T10:25:36;20.60;71.00
43183;DHT22;28802;38.578;-0.066;2023-02-26T10:30:50;21.10;70.30
43183;DHT22;28802;38.578;-0.066;2023-02-26T10:33:26;21.20;67.30
43183;DHT22;28802;38.578;-0.066;2023-02-26T10:36:07;20.80;68.00
43183;DHT22;28802;38.578;-0.066;2023-02-26T10:38:35;20.90;69.20
43183;DHT22;28802;38.578;-0.066;2023-02-26T10:41:04;21.40;67.50
43183;DHT22;28802;38.578;-0.066;2023-02-26T10:43:40;22.10;69.40
43183;DHT22;28802;38.578;-0.066;2023-02-26T10:51:37;22.10;66.10
43183;DHT22;28802;38.578;-0.066;2023-02-26T10:56:40;20.70;65.90
43183;DHT22;28802;38.578;-0.066;2023-02-26T10:59:06;20.70;65.30
43183;DHT22;28802;38.578;-0.066;2023-02-26T11:01:32;21.30;65.90
43183;DHT22;28802;38.578;-0.066;2023-02-26T11:04:06;21.50;67.20
43183;DHT22;28802;38.578;-0.066;2023-02-26T11:06:37;21.20;63.10
43183;DHT22;28802;38.578;-0.066;2023-02-26T11:09:12;21.50;62.90
43183;DHT22;28802;38.578;-0.066;2023-02-26T11:12:05;22.10;63.70
43183;DHT22;28802;38.578;-0.066;2023-02-26T11:14:34;22.00;63.80
43183;DHT22;28802;38.578;-0.066;2023-02-26T11:17:06;22.60;65.10
43183;DHT22;28802;38.578;-0.066;2023-02-26T11:19:37;22.80;62.30
43183;DHT22;28802;38.578;-0.066;2023-02-26T11:22:05;22.80;59.30
43183;DHT22;28802;38.578;-0.066;2023-02-26T11:24:46;22.10;59.00
43183;DHT22;28802;38.578;-0.066;2023-02-26T11:27:17;22.20;57.60
43183;DHT22;28802;38.578;-0.066;2023-02-26T11:29:53;23.30;56.20
43183;DHT22;28802;38.578;-0.066;2023-02-26T11:32:23;21.80;61.80
43183;DHT22;28802;38.578;-0.066;2023-02-26T11:34:51;20.30;59.60
43183;DHT22;28802;38.578;-0.066;2023-02-26T11:37:23;18.30;66.80
43183;DHT22;28802;38.578;-0.066;2023-02-26T11:39:56;18.80;71.90
43183;DHT22;28802;38.578;-0.066;2023-02-26T11:42:23;18.80;71.30
43183;DHT22;28802;38.578;-0.066;2023-02-26T11:44:50;19.80;70.10
43183;DHT22;28802;38.578;-0.066;2023-02-26T11:47:26;20.30;67.20
43183;DHT22;28802;38.578;-0.066;2023-02-26T11:49:55;20.80;64.10
43183;DHT22;28802;38.578;-0.066;2023-02-26T11:52:34;20.40;66.70
43183;DHT22;28802;38.578;-0.066;2023-02-26T11:55:29;20.00;68.40
43183;DHT22;28802;38.578;-0.066;2023-02-26T11:57:56;19.80;68.30
43183;DHT22;28802;38.578;-0.066;2023-02-26T12:02:59;19.30;72.40
43183;DHT22;28802;38.578;-0.066;2023-02-26T12:05:25;20.00;70.00
43183;DHT22;28802;38.578;-0.066;2023-02-26T12:07:51;20.40;69.10
43183;DHT22;28802;38.578;-0.066;2023-02-26T12:10:26;20.40;66.40
43183;DHT22;28802;38.578;-0.066;2023-02-26T12:15:41;20.60;65.20
43183;DHT22;28802;38.578;-0.066;2023-02-26T12:20:43;21.40;61.40
43183;DHT22;28802;38.578;-0.066;2023-02-26T12:23:41;21.40;62.00
43183;DHT22;28802;38.578;-0.066;2023-02-26T12:29:19;22.60;61.40
43183;DHT22;28802;38.578;-0.066;2023-02-26T12:42:44;24.20;55.80
43183;DHT22;28802;38.578;-0.066;2023-02-26T12:45:23;22.90;59.40
43183;DHT22;28802;38.578;-0.066;2023-02-26T12:48:08;22.10;61.90
43183;DHT22;28802;38.578;-0.066;2023-02-26T13:04:52;20.70;68.90
43183;DHT22;28802;38.578;-0.066;2023-02-26T13:21:11;20.40;62.60
43183;DHT22;28802;38.578;-0.066;2023-02-26T13:24:13;20.20;67.60
43183;DHT22;28802;38.578;-0.066;2023-02-26T13:26:40;19.80;72.60
43183;DHT22;28802;38.578;-0.066;2023-02-26T13:34:44;19.10;69.50
43183;DHT22;28802;38.578;-0.066;2023-02-26T13:43:03;19.30;69.10
43183;DHT22;28802;38.578;-0.066;2023-02-26T14:01:47;19.20;71.80
43183;DHT22;28802;38.578;-0.066;2023-02-26T14:06:57;19.60;69.10
43183;DHT22;28802;38.578;-0.066;2023-02-26T14:12:04;19.30;71.10
43183;DHT22;28802;38.578;-0.066;2023-02-26T14:17:29;18.50;74.30
43183;DHT22;28802;38.578;-0.066;2023-02-26T14:27:32;17.80;75.90
43183;DHT22;28802;38.578;-0.066;2023-02-26T14:32:47;17.70;77.40
43183;DHT22;28802;38.578;-0.066;2023-02-26T14:35:18;17.80;78.30
43183;DHT22;28802;38.578;-0.066;2023-02-26T14:37:59;17.80;78.50
43183;DHT22;28802;38.578;-0.066;2023-02-26T14:40:32;17.80;78.70
43183;DHT22;28802;38.578;-0.066;2023-02-26T14:43:03;17.80;78.00
43183;DHT22;28802;38.578;-0.066;2023-02-26T14:45:41;17.70;78.70
43183;DHT22;28802;38.578;-0.066;2023-02-26T14:48:26;17.80;81.30
43183;DHT22;28802;38.578;-0.066;2023-02-26T14:53:51;18.00;80.00
43183;DHT22;28802;38.578;-0.066;2023-02-26T14:59:42;18.00;79.70
43183;DHT22;28802;38.578;-0.066;2023-02-26T15:02:30;17.80;80.40
43183;DHT22;28802;38.578;-0.066;2023-02-26T15:21:02;17.60;81.80
43183;DHT22;28802;38.578;-0.066;2023-02-26T15:23:51;17.60;79.90
43183;DHT22;28802;38.578;-0.066;2023-02-26T15:26:36;17.50;79.60
43183;DHT22;28802;38.578;-0.066;2023-02-26T15:29:09;17.50;81.20
43183;DHT22;28802;38.578;-0.066;2023-02-26T15:31:41;17.30;81.60
43183;DHT22;28802;38.578;-0.066;2023-02-26T15:34:13;17.40;82.30
43183;DHT22;28802;38.578;-0.066;2023-02-26T15:36:44;17.40;82.00
43183;DHT22;28802;38.578;-0.066;2023-02-26T15:39:14;17.60;81.10
43183;DHT22;28802;38.578;-0.066;2023-02-26T15:41:43;17.40;82.70
43183;DHT22;28802;38.578;-0.066;2023-02-26T15:44:18;17.50;82.50
43183;DHT22;28802;38.578;-0.066;2023-02-26T15:46:47;17.30;81.90
43183;DHT22;28802;38.578;-0.066;2023-02-26T15:49:26;17.30;82.40
43183;DHT22;28802;38.578;-0.066;2023-02-26T15:51:54;17.20;82.00
43183;DHT22;28802;38.578;-0.066;2023-02-26T15:54:23;17.20;80.30
43183;DHT22;28802;38.578;-0.066;2023-02-26T15:56:50;17.10;81.80
43183;DHT22;28802;38.578;-0.066;2023-02-26T15:59:38;17.00;83.10
43183;DHT22;28802;38.578;-0.066;2023-02-26T16:02:20;17.00;83.80
43183;DHT22;28802;38.578;-0.066;2023-02-26T16:04:46;16.90;82.60
43183;DHT22;28802;38.578;-0.066;2023-02-26T16:07:12;17.00;82.40
43183;DHT22;28802;38.578;-0.066;2023-02-26T16:09:46;17.10;82.40
43183;DHT22;28802;38.578;-0.066;2023-02-26T16:12:37;17.20;81.70
43183;DHT22;28802;38.578;-0.066;2023-02-26T16:15:18;17.00;82.30
43183;DHT22;28802;38.578;-0.066;2023-02-26T16:17:48;16.90;82.50
43183;DHT22;28802;38.578;-0.066;2023-02-26T16:20:21;17.00;83.00
43183;DHT22;28802;38.578;-0.066;2023-02-26T16:25:49;17.00;83.60
43183;DHT22;28802;38.578;-0.066;2023-02-26T16:28:21;16.90;84.90
43183;DHT22;28802;38.578;-0.066;2023-02-26T16:30:52;17.00;84.20
43183;DHT22;28802;38.578;-0.066;2023-02-26T16:33:21;17.10;84.40
43183;DHT22;28802;38.578;-0.066;2023-02-26T16:36:05;17.40;82.30
43183;DHT22;28802;38.578;-0.066;2023-02-26T16:38:46;17.20;82.50
43183;DHT22;28802;38.578;-0.066;2023-02-26T16:41:14;16.90;83.00
43183;DHT22;28802;38.578;-0.066;2023-02-26T16:46:14;17.00;83.20
43183;DHT22;28802;38.578;-0.066;2023-02-26T16:51:13;16.80;81.40
43183;DHT22;28802;38.578;-0.066;2023-02-26T16:53:43;16.60;82.80
43183;DHT22;28802;38.578;-0.066;2023-02-26T16:56:16;16.60;83.40
43183;DHT22;28802;38.578;-0.066;2023-02-26T16:58:44;16.60;84.00
43183;DHT22;28802;38.578;-0.066;2023-02-26T17:01:16;16.60;83.20
43183;DHT22;28802;38.578;-0.066;2023-02-26T17:03:45;16.60;83.50
43183;DHT22;28802;38.578;-0.066;2023-02-26T17:06:16;16.40;85.30
43183;DHT22;28802;38.578;-0.066;2023-02-26T17:08:56;16.30;85.50
43183;DHT22;28802;38.578;-0.066;2023-02-26T17:11:26;16.30;84.80
43183;DHT22;28802;38.578;-0.066;2023-02-26T17:14:12;16.30;84.40
43183;DHT22;28802;38.578;-0.066;2023-02-26T17:16:40;16.20;84.30
43183;DHT22;28802;38.578;-0.066;2023-02-26T17:19:06;16.20;83.80
43183;DHT22;28802;38.578;-0.066;2023-02-26T17:21:32;16.30;81.70
43183;DHT22;28802;38.578;-0.066;2023-02-26T17:23:58;16.40;82.20
43183;DHT22;28802;38.578;-0.066;2023-02-26T17:26:24;16.30;83.60
43183;DHT22;28802;38.578;-0.066;2023-02-26T17:28:50;16.10;84.60
43183;DHT22;28802;38.578;-0.066;2023-02-26T17:31:16;16.00;85.20
43183;DHT22;28802;38.578;-0.066;2023-02-26T17:33:44;16.00;85.60
43183;DHT22;28802;38.578;-0.066;2023-02-26T17:36:14;16.00;84.90
43183;DHT22;28802;38.578;-0.066;2023-02-26T17:38:41;16.10;84.70
43183;DHT22;28802;38.578;-0.066;2023-02-26T17:41:17;16.00;85.90
43183;DHT22;28802;38.578;-0.066;2023-02-26T17:43:43;15.90;85.90
43183;DHT22;28802;38.578;-0.066;2023-02-26T17:46:10;15.90;85.60
43183;DHT22;28802;38.578;-0.066;2023-02-26T17:48:37;15.90;86.70
43183;DHT22;28802;38.578;-0.066;2023-02-26T17:51:03;15.80;87.50
43183;DHT22;28802;38.578;-0.066;2023-02-26T17:53:29;15.80;85.70
43183;DHT22;28802;38.578;-0.066;2023-02-26T17:56:21;15.90;85.90
43183;DHT22;28802;38.578;-0.066;2023-02-26T17:58:48;15.70;86.70
43183;DHT22;28802;38.578;-0.066;2023-02-26T18:01:14;15.80;86.60
43183;DHT22;28802;38.578;-0.066;2023-02-26T18:03:41;15.80;86.70
43183;DHT22;28802;38.578;-0.066;2023-02-26T18:06:08;15.70;87.00
43183;DHT22;28802;38.578;-0.066;2023-02-26T18:08:36;15.70;86.70
43183;DHT22;28802;38.578;-0.066;2023-02-26T18:11:03;15.70;88.80
43183;DHT22;28802;38.578;-0.066;2023-02-26T18:13:29;15.50;89.20
43183;DHT22;28802;38.578;-0.066;2023-02-26T18:15:56;15.40;89.80
43183;DHT22;28802;38.578;-0.066;2023-02-26T18:18:24;15.50;89.80
43183;DHT22;28802;38.578;-0.066;2023-02-26T18:20:51;15.50;90.20
43183;DHT22;28802;38.578;-0.066;2023-02-26T18:23:17;15.60;89.90
43183;DHT22;28802;38.578;-0.066;2023-02-26T18:25:45;15.80;88.80
43183;DHT22;28802;38.578;-0.066;2023-02-26T18:28:20;15.70;98.40
43183;DHT22;28802;38.578;-0.066;2023-02-26T18:30:48;15.50;99.90
43183;DHT22;28802;38.578;-0.066;2023-02-26T18:33:14;15.30;99.90
43183;DHT22;28802;38.578;-0.066;2023-02-26T18:35:54;15.20;99.90
43183;DHT22;28802;38.578;-0.066;2023-02-26T18:38:25;14.80;99.90
43183;DHT22;28802;38.578;-0.066;2023-02-26T18:40:51;14.70;99.90
43183;DHT22;28802;38.578;-0.066;2023-02-26T18:43:18;14.60;99.90
43183;DHT22;28802;38.578;-0.066;2023-02-26T18:45:46;14.50;99.90
43183;DHT22;28802;38.578;-0.066;2023-02-26T18:48:18;14.30;99.90
43183;DHT22;28802;38.578;-0.066;2023-02-26T18:50:44;14.10;99.90
43183;DHT22;28802;38.578;-0.066;2023-02-26T18:53:11;14.10;99.90
43183;DHT22;28802;38.578;-0.066;2023-02-26T18:55:38;14.10;99.90
43183;DHT22;28802;38.578;-0.066;2023-02-26T18:58:04;14.20;99.90
43183;DHT22;28802;38.578;-0.066;2023-02-26T19:00:30;14.20;99.90
43183;DHT22;28802;38.578;-0.066;2023-02-26T19:02:56;14.20;99.90